Time;durP1;ratioP1;P1;durP2;ratioP2;P2;SDS_P1;SDS_P2;PMS_P1;PMS_P2;Temp;Humidity;BMP_temperature;BMP_pressure;BME280_temperature;BME280_humidity;BME280_pressure;Samples;Min_cycle;Max_cycle;Signal;HPM_P1;HPM_P2
2021/11/10 00:00:10;;;;;;;10.63;5.45;;;10.10;99.90;;;;;;5052903;28;20047;-86
2021/11/10 00:02:41;;;;;;;11.35;4.32;;;10.10;99.90;;;;;;5087387;28;20063;-84
2021/11/10 00:05:11;;;;;;;7.07;3.83;;;10.10;99.90;;;;;;5071017;28;20043;-84
2021/11/10 00:07:41;;;;;;;14.67;5.93;;;10.10;99.90;;;;;;5089028;28;20040;-85
2021/11/10 00:10:10;;;;;;;9.48;4.68;;;10.10;99.90;;;;;;5076865;28;20055;-85
2021/11/10 00:12:39;;;;;;;10.30;4.18;;;10.10;99.90;;;;;;5061719;28;20068;-85
2021/11/10 00:15:08;;;;;;;9.60;5.00;;;10.10;99.90;;;;;;5076820;28;20070;-84
2021/11/10 00:17:36;;;;;;;8.85;4.45;;;10.10;99.90;;;;;;5089738;28;20040;-84
2021/11/10 00:20:07;;;;;;;7.70;3.90;;;10.10;99.90;;;;;;5075688;28;20435;-86
2021/11/10 00:22:35;;;;;;;;;;;10.20;99.90;;;;;;5097808;28;20420;-88
2021/11/10 00:25:04;;;;;;;6.97;4.10;;;10.20;99.90;;;;;;5077008;28;19947;-85
2021/11/10 00:27:32;;;;;;;9.27;4.68;;;10.30;99.90;;;;;;5059909;28;20057;-85
2021/11/10 00:30:00;;;;;;;11.57;5.28;;;10.30;99.90;;;;;;5078452;28;20376;-87
2021/11/10 00:32:29;;;;;;;8.05;4.13;;;10.40;99.90;;;;;;5062620;28;20043;-87
2021/11/10 00:34:57;;;;;;;9.55;5.07;;;10.90;99.90;;;;;;5063898;28;20052;-87
2021/11/10 00:37:24;;;;;;;8.55;3.88;;;10.50;99.90;;;;;;5059578;28;20480;-87
2021/11/10 00:39:52;;;;;;;10.65;4.80;;;10.60;99.90;;;;;;5066585;28;20070;-87
2021/11/10 00:42:20;;;;;;;9.98;4.78;;;10.60;99.90;;;;;;5097744;28;20056;-85
2021/11/10 00:44:48;;;;;;;8.95;3.70;;;10.70;99.90;;;;;;5063173;28;20512;-85
2021/11/10 00:47:15;;;;;;;9.38;5.18;;;10.70;99.90;;;;;;5097477;28;20044;-89
2021/11/10 00:49:43;;;;;;;16.95;4.95;;;10.70;99.90;;;;;;5043071;28;20056;-90
2021/11/10 00:52:11;;;;;;;10.73;4.32;;;10.70;99.90;;;;;;5061016;28;20052;-86
2021/11/10 00:54:41;;;;;;;10.63;4.38;;;10.80;99.90;;;;;;5062530;28;20059;-89
2021/11/10 00:57:09;;;;;;;19.95;7.50;;;10.80;99.90;;;;;;5098615;28;20054;-88
2021/11/10 00:59:39;;;;;;;9.30;4.95;;;10.80;99.90;;;;;;5062737;28;20040;-87
2021/11/10 01:02:07;;;;;;;10.10;4.68;;;10.80;99.90;;;;;;5079895;28;20052;-89
2021/11/10 01:04:35;;;;;;;15.98;5.88;;;11.40;99.90;;;;;;5064510;28;20063;-88
2021/11/10 01:07:04;;;;;;;16.80;6.47;;;10.80;99.90;;;;;;5063734;28;20063;-89
2021/11/10 01:09:45;;;;;;;9.68;5.85;;;10.80;99.90;;;;;;5063136;28;20044;-89
2021/11/10 01:12:14;;;;;;;12.25;5.72;;;10.80;99.90;;;;;;5059630;28;20053;-88
2021/11/10 01:14:42;;;;;;;12.32;7.30;;;10.80;99.90;;;;;;5078950;28;20060;-89
2021/11/10 01:17:14;;;;;;;13.00;6.78;;;10.80;99.90;;;;;;5044036;28;20048;-87
2021/11/10 01:19:49;;;;;;;14.23;7.07;;;10.80;99.90;;;;;;5077814;28;20227;-90
2021/11/10 01:22:17;;;;;;;19.42;7.93;;;10.80;99.90;;;;;;5045037;28;20048;-88
2021/11/10 01:24:46;;;;;;;16.42;8.88;;;10.90;99.90;;;;;;5060741;28;20056;-87
2021/11/10 01:27:15;;;;;;;14.65;7.28;;;10.90;99.90;;;;;;5061285;28;20063;-88
2021/11/10 01:29:48;;;;;;;15.02;7.57;;;10.90;99.90;;;;;;5063293;28;20061;-88
2021/11/10 01:32:16;;;;;;;14.27;7.93;;;11.00;99.90;;;;;;5060895;28;20741;-88
2021/11/10 01:34:45;;;;;;;13.98;9.50;;;11.00;99.90;;;;;;5079475;28;20044;-88
2021/11/10 01:37:17;;;;;;;;;;;11.00;99.90;;;;;;5097427;28;20044;-91
2021/11/10 01:39:47;;;;;;;15.90;7.85;;;11.10;99.90;;;;;;5063045;28;19920;-87
2021/11/10 01:42:19;;;;;;;16.25;8.18;;;11.30;99.90;;;;;;5064182;28;20048;-88
2021/11/10 01:44:50;;;;;;;16.52;8.27;;;11.10;99.90;;;;;;5079187;28;20070;-89
2021/11/10 01:47:19;;;;;;;11.77;6.30;;;11.10;99.90;;;;;;5077592;28;20059;-88
2021/11/10 01:49:48;;;;;;;15.68;7.38;;;11.20;99.90;;;;;;5094004;28;20048;-89
2021/11/10 01:52:17;;;;;;;13.50;6.53;;;11.20;99.90;;;;;;5056772;28;20319;-86
2021/11/10 01:54:45;;;;;;;10.48;5.53;;;11.20;99.90;;;;;;5057029;28;20040;-86
2021/11/10 01:57:20;;;;;;;8.75;5.57;;;11.20;99.90;;;;;;5090329;28;20051;-86
2021/11/10 02:00:05;;;;;;;15.45;5.53;;;11.20;99.90;;;;;;5056706;28;20082;-87
2021/11/10 02:02:47;;;;;;;11.40;5.25;;;11.30;99.90;;;;;;5073779;28;20054;-88
2021/11/10 02:05:33;;;;;;;8.40;4.88;;;11.20;99.90;;;;;;5057413;28;20055;-86
2021/11/10 02:08:05;;;;;;;10.90;4.82;;;11.30;99.90;;;;;;5059102;28;20055;-85
2021/11/10 02:10:32;;;;;;;8.57;4.05;;;11.30;99.90;;;;;;5057483;28;20067;-88
2021/11/10 02:13:00;;;;;;;7.78;4.25;;;10.20;99.90;;;;;;5057203;28;20052;-86
2021/11/10 02:15:29;;;;;;;9.38;4.07;;;11.30;99.90;;;;;;5038669;28;20053;-86
2021/11/10 02:18:04;;;;;;;7.95;4.90;;;11.40;99.90;;;;;;5066855;28;20507;-87
2021/11/10 02:20:36;;;;;;;9.50;4.82;;;11.40;99.90;;;;;;5040382;28;20071;-87
2021/11/10 02:23:08;;;;;;;7.03;3.78;;;11.40;99.90;;;;;;5056791;28;20044;-87
2021/11/10 02:25:36;;;;;;;6.85;3.65;;;11.40;99.90;;;;;;5061174;28;20052;-85
2021/11/10 02:28:04;;;;;;;7.97;4.88;;;11.40;99.90;;;;;;5092001;28;20047;-87
2021/11/10 02:30:32;;;;;;;6.40;4.00;;;11.50;99.90;;;;;;5076451;28;20078;-86
2021/11/10 02:33:01;;;;;;;8.40;4.05;;;11.50;99.90;;;;;;5078020;28;20067;-87
2021/11/10 02:35:31;;;;;;;7.10;3.80;;;11.60;99.90;;;;;;5052873;28;20052;-86
2021/11/10 02:38:05;;;;;;;6.85;4.20;;;11.50;99.90;;;;;;5045610;28;20044;-86
2021/11/10 02:40:34;;;;;;;6.50;3.30;;;11.60;99.90;;;;;;5040605;28;20062;-87
2021/11/10 02:43:02;;;;;;;8.48;3.50;;;11.60;99.90;;;;;;5056972;28;20460;-87
2021/11/10 02:45:30;;;;;;;6.95;3.88;;;11.60;99.90;;;;;;5041016;28;20415;-88
2021/11/10 02:47:58;;;;;;;6.03;3.35;;;11.60;99.90;;;;;;5068394;28;20044;-86
2021/11/10 02:50:31;;;;;;;7.93;3.30;;;11.60;99.90;;;;;;5074352;28;20044;-86
2021/11/10 02:52:59;;;;;;;6.65;3.28;;;11.60;99.90;;;;;;5074101;28;20047;-89
2021/11/10 02:55:28;;;;;;;5.85;2.53;;;11.70;99.90;;;;;;5044741;28;20048;-87
2021/11/10 02:57:57;;;;;;;6.57;2.92;;;11.70;99.90;;;;;;5088675;28;20036;-87
2021/11/10 03:00:26;;;;;;;5.60;2.50;;;11.70;99.90;;;;;;5058685;28;20065;-88
2021/11/10 03:02:56;;;;;;;9.32;3.13;;;11.70;99.90;;;;;;5059686;28;20044;-86
2021/11/10 03:05:26;;;;;;;5.13;2.60;;;11.70;99.90;;;;;;5077357;28;20067;-87
2021/11/10 03:07:55;;;;;;;6.28;2.97;;;11.70;99.90;;;;;;5059520;28;20416;-86
2021/11/10 03:10:24;;;;;;;4.75;2.55;;;11.70;99.90;;;;;;5075740;28;20452;-86
2021/11/10 03:12:55;;;;;;;;;;;11.50;99.90;;;;;;5043431;28;20051;-90
2021/11/10 03:15:27;;;;;;;5.28;2.70;;;11.70;99.90;;;;;;5059721;28;19920;-87
2021/11/10 03:17:56;;;;;;;4.97;2.90;;;11.70;99.90;;;;;;5076753;28;20052;-87
2021/11/10 03:20:46;;;;;;;4.78;2.53;;;11.80;99.90;;;;;;5076741;28;20040;-88
2021/11/10 03:23:15;;;;;;;3.08;2.50;;;11.80;99.90;;;;;;5058581;28;20494;-89
2021/11/10 03:25:47;;;;;;;10.68;2.60;;;11.80;99.90;;;;;;5060211;28;20055;-86
2021/11/10 03:28:17;;;;;;;8.07;3.35;;;11.80;99.90;;;;;;5059545;28;20044;-87
2021/11/10 03:30:45;;;;;;;10.02;3.40;;;11.80;99.90;;;;;;5075023;28;20052;-88
2021/11/10 03:33:14;;;;;;;6.32;2.90;;;11.80;99.90;;;;;;5076580;28;20055;-88
2021/11/10 03:35:42;;;;;;;8.48;4.28;;;11.80;99.90;;;;;;5057489;28;20056;-86
2021/11/10 03:38:17;;;;;;;11.82;4.35;;;11.80;99.90;;;;;;5075058;28;20060;-87
2021/11/10 03:40:50;;;;;;;12.70;4.43;;;11.80;99.90;;;;;;5056100;28;20045;-87
2021/11/10 03:43:23;;;;;;;26.40;5.75;;;11.80;99.90;;;;;;5056569;28;20063;-86
2021/11/10 03:45:55;;;;;;;13.35;5.32;;;11.80;99.90;;;;;;5054181;28;20554;-85
2021/11/10 03:48:24;;;;;;;9.55;4.22;;;11.20;99.90;;;;;;5079560;28;20270;-89
2021/11/10 03:50:54;;;;;;;10.90;4.68;;;11.80;99.90;;;;;;5072747;28;20052;-89
2021/11/10 03:53:24;;;;;;;12.38;5.45;;;11.80;99.90;;;;;;5074269;28;20497;-86
2021/11/10 03:55:53;;;;;;;12.15;5.53;;;11.80;99.90;;;;;;5068596;28;20055;-88
2021/11/10 03:58:22;;;;;;;14.07;4.90;;;11.80;99.90;;;;;;5058760;28;20613;-85
2021/11/10 04:00:54;;;;;;;12.88;5.10;;;12.20;99.90;;;;;;5057850;28;20051;-88
2021/11/10 04:03:28;;;;;;;11.25;5.30;;;11.80;99.90;;;;;;5056857;28;20048;-88
2021/11/10 04:05:57;;;;;;;15.48;5.93;;;11.80;99.90;;;;;;5057273;28;20047;-86
2021/11/10 04:08:25;;;;;;;13.82;5.00;;;11.80;99.90;;;;;;5054716;28;20048;-87
2021/11/10 04:10:56;;;;;;;13.10;5.30;;;11.80;99.90;;;;;;5055847;28;20526;-88
2021/11/10 04:13:28;;;;;;;;;;;11.80;99.90;;;;;;5058621;28;20052;-88
2021/11/10 04:15:57;;;;;;;9.65;4.68;;;11.80;99.90;;;;;;5074540;28;19920;-88
2021/11/10 04:18:27;;;;;;;14.10;5.97;;;11.80;99.90;;;;;;5054883;28;20491;-90
2021/11/10 04:20:55;;;;;;;11.63;4.63;;;11.80;99.90;;;;;;5054526;28;20049;-89
2021/11/10 04:23:22;;;;;;;14.32;6.50;;;11.80;99.90;;;;;;5037837;28;20068;-89
2021/11/10 04:25:50;;;;;;;15.60;6.32;;;11.80;99.90;;;;;;5066023;28;20048;-90
2021/11/10 04:28:19;;;;;;;14.20;5.57;;;11.80;99.90;;;;;;5056676;28;20056;-89
2021/11/10 04:30:49;;;;;;;24.35;6.20;;;11.80;99.90;;;;;;5040534;28;20056;-88
2021/11/10 04:33:20;;;;;;;10.98;5.22;;;11.80;99.90;;;;;;5044494;28;20063;-88
2021/11/10 04:35:51;;;;;;;19.17;6.25;;;11.80;99.90;;;;;;5046680;28;20060;-88
2021/11/10 04:38:19;;;;;;;11.35;5.28;;;11.70;99.90;;;;;;5073699;28;20059;-87
2021/11/10 04:40:47;;;;;;;13.73;5.50;;;11.70;99.90;;;;;;5074097;28;20052;-88
2021/11/10 04:43:17;;;;;;;15.98;5.65;;;11.60;99.90;;;;;;5040051;28;20048;-87
2021/11/10 04:46:00;;;;;;;10.32;5.00;;;11.60;99.90;;;;;;5072677;28;20071;-89
2021/11/10 04:48:29;;;;;;;16.15;5.60;;;11.60;99.90;;;;;;5044116;28;20059;-88
2021/11/10 04:50:57;;;;;;;13.35;5.82;;;11.60;99.90;;;;;;5073537;28;20045;-88
2021/11/10 04:53:25;;;;;;;12.85;6.00;;;11.60;99.90;;;;;;5037712;28;20048;-89
2021/11/10 04:55:53;;;;;;;11.55;5.80;;;11.60;99.90;;;;;;5048401;28;20059;-89
2021/11/10 04:58:22;;;;;;;12.93;6.30;;;11.60;99.90;;;;;;5059062;28;20048;-89
2021/11/10 05:00:53;;;;;;;17.42;6.43;;;11.60;99.90;;;;;;5061116;28;20783;-88
2021/11/10 05:03:21;;;;;;;17.30;5.90;;;11.50;99.90;;;;;;5085324;28;20048;-88
2021/11/10 05:05:50;;;;;;;11.70;5.28;;;11.50;99.90;;;;;;5101406;28;20147;-88
2021/11/10 05:08:18;;;;;;;18.25;6.60;;;11.40;99.90;;;;;;5083064;28;20062;-88
2021/11/10 05:10:46;;;;;;;10.80;5.38;;;11.40;99.90;;;;;;5077276;28;20067;-88
2021/11/10 05:13:14;;;;;;;12.57;4.80;;;11.30;99.90;;;;;;5074439;28;20036;-88
2021/11/10 05:15:42;;;;;;;12.25;5.25;;;11.20;99.90;;;;;;5073821;28;20043;-89
2021/11/10 05:18:16;;;;;;;12.85;6.22;;;11.20;99.90;;;;;;5074030;28;20617;-88
2021/11/10 05:20:44;;;;;;;14.25;6.47;;;11.10;99.90;;;;;;5057919;28;20055;-88
2021/11/10 05:23:15;;;;;;;14.63;6.32;;;11.10;99.90;;;;;;5056346;28;20419;-87
2021/11/10 05:25:43;;;;;;;13.60;5.82;;;11.10;99.90;;;;;;5046840;28;20048;-87
2021/11/10 05:28:11;;;;;;;15.65;6.30;;;11.10;99.90;;;;;;5073941;28;20063;-88
2021/11/10 05:30:39;;;;;;;15.02;5.78;;;11.10;99.90;;;;;;5091864;28;20055;-84
2021/11/10 05:33:08;;;;;;;12.50;6.30;;;11.10;99.90;;;;;;5053292;28;20048;-86
2021/11/10 05:35:35;;;;;;;14.77;6.68;;;11.10;99.90;;;;;;5089596;28;20612;-86
2021/11/10 05:38:03;;;;;;;16.70;7.25;;;11.20;99.90;;;;;;5056547;28;20075;-87
2021/11/10 05:40:31;;;;;;;14.63;7.03;;;11.20;99.90;;;;;;5090287;28;20047;-87
2021/11/10 05:43:00;;;;;;;15.73;7.43;;;11.20;99.90;;;;;;5053397;28;20052;-87
2021/11/10 05:45:29;;;;;;;14.88;7.18;;;11.20;99.90;;;;;;5076735;28;20040;-87
2021/11/10 05:47:59;;;;;;;15.70;6.75;;;11.30;99.90;;;;;;5074799;28;20392;-89
2021/11/10 05:50:27;;;;;;;15.15;7.20;;;11.20;99.90;;;;;;4690271;28;9999729;-88
2021/11/10 05:52:56;;;;;;;14.30;7.10;;;11.30;99.90;;;;;;5075001;28;20051;-87
2021/11/10 05:55:25;;;;;;;13.20;6.05;;;11.50;99.90;;;;;;5074921;28;20062;-89
2021/11/10 05:57:53;;;;;;;14.10;5.85;;;11.30;99.90;;;;;;5075189;28;20062;-87
2021/11/10 06:00:22;;;;;;;15.15;6.38;;;11.40;99.90;;;;;;5095024;28;20688;-88
2021/11/10 06:02:51;;;;;;;15.70;6.10;;;11.50;99.90;;;;;;5039858;28;20072;-87
2021/11/10 06:05:19;;;;;;;14.02;6.82;;;11.50;99.90;;;;;;5039443;28;20052;-87
2021/11/10 06:07:49;;;;;;;13.07;5.10;;;11.50;99.90;;;;;;5073941;28;20064;-88
2021/11/10 06:10:19;;;;;;;11.73;6.65;;;11.60;99.90;;;;;;5072159;28;20063;-89
2021/11/10 06:12:47;;;;;;;14.40;6.47;;;11.60;99.90;;;;;;5091214;28;20070;-88
2021/11/10 06:15:16;;;;;;;19.92;7.78;;;11.50;99.90;;;;;;5091297;28;20395;-88
2021/11/10 06:17:44;;;;;;;15.25;6.53;;;11.70;99.90;;;;;;5073481;28;20051;-87
2021/11/10 06:20:13;;;;;;;15.60;6.95;;;11.70;99.90;;;;;;5052439;28;20044;-90
2021/11/10 06:22:41;;;;;;;16.05;7.50;;;11.70;99.90;;;;;;5038652;28;20049;-88
2021/11/10 06:25:09;;;;;;;14.48;7.20;;;11.70;99.90;;;;;;5068713;28;20044;-89
2021/11/10 06:27:38;;;;;;;17.40;7.00;;;11.80;99.90;;;;;;5073541;28;20056;-87
2021/11/10 06:30:08;;;;;;;12.48;6.38;;;11.80;99.90;;;;;;5073641;28;20048;-87
2021/11/10 06:32:36;;;;;;;15.70;6.57;;;11.80;99.90;;;;;;5073642;28;20040;-87
2021/11/10 06:35:06;;;;;;;15.05;8.65;;;11.80;99.90;;;;;;5073800;28;20071;-87
2021/11/10 06:37:34;;;;;;;17.02;7.50;;;11.90;99.90;;;;;;5051276;28;20426;-90
2021/11/10 06:40:03;;;;;;;14.95;7.63;;;11.80;99.90;;;;;;5067780;28;20044;-87
2021/11/10 06:42:31;;;;;;;15.82;7.35;;;11.90;99.90;;;;;;5051545;28;20059;-87
2021/11/10 06:45:00;;;;;;;15.10;7.80;;;11.90;99.90;;;;;;5091074;28;20090;-89
2021/11/10 06:47:28;;;;;;;14.73;7.63;;;12.00;99.90;;;;;;5074929;28;20047;-88
2021/11/10 06:49:57;;;;;;;15.15;6.90;;;12.00;99.90;;;;;;5092521;28;20560;-87
2021/11/10 06:52:26;;;;;;;16.35;8.30;;;12.00;99.90;;;;;;5076517;28;20040;-87
2021/11/10 06:54:55;;;;;;;15.00;7.53;;;12.00;99.90;;;;;;5076289;28;20407;-89
2021/11/10 06:57:25;;;;;;;24.08;8.40;;;12.10;99.90;;;;;;5069496;28;20084;-89
2021/11/10 06:59:54;;;;;;;15.38;7.95;;;12.10;99.90;;;;;;5061096;28;20048;-89
2021/11/10 07:02:23;;;;;;;18.90;7.53;;;12.10;99.90;;;;;;5060897;28;20067;-89
2021/11/10 07:04:51;;;;;;;18.45;7.03;;;12.10;99.90;;;;;;5076165;28;20051;-88
2021/11/10 07:07:19;;;;;;;17.67;7.82;;;12.10;99.90;;;;;;5064072;28;20041;-88
2021/11/10 07:09:46;;;;;;;18.83;7.68;;;12.10;99.90;;;;;;5089704;28;20047;-90
2021/11/10 07:12:16;;;;;;;14.48;7.78;;;12.10;99.90;;;;;;5088380;28;20368;-90
2021/11/10 07:14:47;;;;;;;16.27;6.28;;;12.10;99.90;;;;;;5056301;28;20215;-89
2021/11/10 07:17:16;;;;;;;17.63;8.73;;;12.20;99.90;;;;;;5077853;28;20044;-88
2021/11/10 07:19:45;;;;;;;14.68;6.90;;;12.10;99.90;;;;;;5071833;28;20048;-90
2021/11/10 07:22:13;;;;;;;17.10;7.75;;;12.60;99.90;;;;;;5071792;28;20499;-89
2021/11/10 07:24:41;;;;;;;18.00;8.65;;;12.20;99.90;;;;;;5058219;28;20048;-88
2021/11/10 07:27:12;;;;;;;20.02;7.80;;;12.20;99.90;;;;;;5054707;28;20044;-89
2021/11/10 07:29:45;;;;;;;17.98;8.82;;;12.20;99.90;;;;;;5082662;28;20051;-87
2021/11/10 07:32:14;;;;;;;17.40;7.72;;;12.30;99.90;;;;;;5045710;28;20051;-88
2021/11/10 07:34:42;;;;;;;15.55;8.60;;;12.20;99.90;;;;;;5086993;28;20535;-89
2021/11/10 07:37:10;;;;;;;14.68;7.68;;;12.20;99.90;;;;;;5068302;28;20510;-88
2021/11/10 07:39:43;;;;;;;18.20;7.53;;;12.30;99.90;;;;;;5059064;28;20041;-88
2021/11/10 07:42:45;;;;;;;20.30;7.90;;;12.20;99.90;;;;;;5054073;28;20475;-88
2021/11/10 07:45:39;;;;;;;15.32;7.38;;;12.40;99.90;;;;;;5079442;28;20048;-89
2021/11/10 07:48:15;;;;;;;13.95;7.20;;;12.30;99.90;;;;;;5075027;28;20063;-90
2021/11/10 07:50:49;;;;;;;14.07;6.88;;;11.70;99.90;;;;;;5060974;28;20051;-89
2021/11/10 07:53:19;;;;;;;13.95;6.95;;;12.40;99.90;;;;;;5082971;28;20040;-88
2021/11/10 07:55:49;;;;;;;23.80;7.05;;;12.40;99.90;;;;;;5097720;28;20051;-88
2021/11/10 07:58:17;;;;;;;14.00;6.50;;;12.40;99.90;;;;;;5075644;28;20048;-88
2021/11/10 08:00:46;;;;;;;14.43;6.82;;;12.40;99.90;;;;;;5090665;28;20051;-88
2021/11/10 08:03:15;;;;;;;16.65;8.52;;;12.40;99.90;;;;;;5077270;28;20041;-89
2021/11/10 08:05:43;;;;;;;14.32;7.20;;;12.40;99.90;;;;;;5057472;28;20056;-89
2021/11/10 08:08:11;;;;;;;15.13;7.43;;;12.40;99.90;;;;;;5052441;28;20593;-87
2021/11/10 08:10:58;;;;;;;15.02;6.97;;;12.40;99.90;;;;;;5064919;28;20043;-89
2021/11/10 08:13:28;;;;;;;15.82;7.80;;;12.40;99.90;;;;;;5056799;28;20048;-88
2021/11/10 08:15:57;;;;;;;13.82;6.90;;;12.50;99.90;;;;;;5100096;28;20040;-89
2021/11/10 08:18:25;;;;;;;21.10;8.55;;;12.50;99.90;;;;;;5065059;28;20052;-88
2021/11/10 08:20:53;;;;;;;16.98;7.55;;;12.50;99.90;;;;;;5047877;28;20052;-88
2021/11/10 08:23:25;;;;;;;16.38;7.60;;;12.50;99.90;;;;;;5096972;28;20048;-90
2021/11/10 08:25:57;;;;;;;17.70;7.57;;;12.50;99.90;;;;;;5057945;28;20036;-88
2021/11/10 08:28:26;;;;;;;15.13;7.65;;;12.50;99.90;;;;;;5067532;28;20059;-90
2021/11/10 08:30:55;;;;;;;16.80;7.15;;;12.50;99.90;;;;;;5085104;28;20052;-90
2021/11/10 08:33:28;;;;;;;15.18;7.80;;;12.50;99.90;;;;;;5096721;28;20048;-91
2021/11/10 08:35:58;;;;;;;22.80;9.50;;;12.60;99.90;;;;;;5086820;28;20052;-88
2021/11/10 08:38:29;;;;;;;;;;;12.60;99.90;;;;;;5100543;28;20043;-87
2021/11/10 08:41:01;;;;;;;14.82;7.60;;;12.60;99.90;;;;;;5086351;28;19920;-90
2021/11/10 08:43:30;;;;;;;15.68;7.57;;;12.60;99.90;;;;;;5103815;28;20040;-90
2021/11/10 08:45:59;;;;;;;18.13;8.70;;;12.60;99.90;;;;;;5104644;28;20083;-90
2021/11/10 08:48:28;;;;;;;17.60;8.40;;;12.60;99.90;;;;;;5080492;28;20893;-93
2021/11/10 08:50:57;;;;;;;18.27;8.85;;;12.40;99.90;;;;;;5067997;28;20057;-90
2021/11/10 08:53:26;;;;;;;20.25;8.85;;;12.60;99.90;;;;;;5103049;28;20036;-86
2021/11/10 08:56:04;;;;;;;17.27;8.50;;;12.60;99.90;;;;;;5062977;28;20044;-91
2021/11/10 08:58:50;;;;;;;14.73;7.40;;;12.70;99.90;;;;;;5099363;28;20051;-91
2021/11/10 09:01:22;;;;;;;19.98;9.38;;;12.60;99.90;;;;;;5086445;28;20049;-94
2021/11/10 09:03:54;;;;;;;17.83;8.85;;;12.70;99.90;;;;;;5085699;28;20044;-87
2021/11/10 09:06:23;;;;;;;13.98;7.30;;;12.70;99.90;;;;;;5104738;28;20051;-89
2021/11/10 09:08:51;;;;;;;18.38;7.75;;;12.70;99.90;;;;;;5064942;28;20049;-93
2021/11/10 09:11:19;;;;;;;15.48;6.90;;;12.70;99.90;;;;;;5076666;28;20468;-92
2021/11/10 09:13:47;;;;;;;13.93;8.07;;;12.70;99.90;;;;;;5099807;28;20047;-94
2021/11/10 09:16:20;;;;;;;14.88;6.75;;;12.70;99.90;;;;;;5053715;28;20054;-90
2021/11/10 09:18:48;;;;;;;14.95;7.00;;;12.70;99.90;;;;;;5086200;28;20060;-93
2021/11/10 09:21:16;;;;;;;11.68;5.85;;;12.80;99.90;;;;;;5052172;28;20066;-90
2021/11/10 09:23:45;;;;;;;12.38;6.10;;;12.80;99.90;;;;;;5077035;28;20052;-93
2021/11/10 09:26:13;;;;;;;11.25;5.60;;;12.80;99.90;;;;;;5074477;28;20044;-90
2021/11/10 09:28:41;;;;;;;10.57;5.88;;;12.80;99.90;;;;;;5079995;28;20044;-92
2021/11/10 09:31:10;;;;;;;11.70;5.85;;;12.80;99.90;;;;;;5096334;28;20051;-93
2021/11/10 09:33:44;;;;;;;8.40;5.07;;;12.80;99.90;;;;;;5084857;28;20043;-93
2021/11/10 09:36:12;;;;;;;7.88;4.70;;;12.90;99.90;;;;;;5079642;28;20040;-94
2021/11/10 09:38:41;;;;;;;5.68;3.45;;;13.00;99.90;;;;;;5098261;28;20045;-91
2021/11/10 09:41:09;;;;;;;9.05;5.20;;;13.10;99.90;;;;;;5098069;28;20052;-91
2021/11/10 09:43:40;;;;;;;7.97;4.30;;;13.10;99.90;;;;;;5066574;28;20079;-93
2021/11/10 09:46:10;;;;;;;7.45;4.05;;;13.20;99.90;;;;;;5100529;28;20501;-92
2021/11/10 09:48:39;;;;;;;6.18;3.50;;;13.30;99.90;;;;;;5082772;28;20493;-89
2021/11/10 09:51:09;;;;;;;8.65;4.28;;;13.40;99.90;;;;;;5049745;28;20040;-92
2021/11/10 09:53:38;;;;;;;5.00;2.78;;;13.50;99.90;;;;;;5076583;28;20040;-92
2021/11/10 09:56:07;;;;;;;10.48;4.30;;;13.50;99.90;;;;;;5054011;28;20059;-88
2021/11/10 09:58:36;;;;;;;6.25;3.50;;;13.50;99.90;;;;;;5092466;28;20049;-92
2021/11/10 10:01:06;;;;;;;8.80;3.38;;;13.60;99.90;;;;;;5062064;28;20052;-90
2021/11/10 10:03:36;;;;;;;4.57;2.55;;;13.60;99.90;;;;;;5076794;28;20044;-93
2021/11/10 10:06:05;;;;;;;15.05;6.03;;;13.60;99.90;;;;;;5097878;28;20067;-85
2021/11/10 10:08:37;;;;;;;4.70;2.97;;;13.70;99.90;;;;;;5078140;28;20445;-92
2021/11/10 10:11:10;;;;;;;5.45;3.45;;;13.80;99.90;;;;;;5062483;28;20051;-90
2021/11/10 10:13:39;;;;;;;5.60;2.72;;;13.90;99.90;;;;;;5078923;28;20040;-88
2021/11/10 10:16:08;;;;;;;5.93;3.22;;;14.00;99.90;;;;;;5066179;28;20036;-88
2021/11/10 10:18:37;;;;;;;5.95;3.72;;;14.10;99.90;;;;;;5072546;28;20052;-88
2021/11/10 10:21:08;;;;;;;6.38;3.58;;;14.20;99.90;;;;;;5085046;28;20052;-89
2021/11/10 10:23:45;;;;;;;7.72;2.78;;;14.30;99.90;;;;;;5074712;28;20043;-86
2021/11/10 10:26:22;;;;;;;5.65;2.95;;;14.30;99.90;;;;;;5059166;28;20040;-90
2021/11/10 10:28:57;;;;;;;5.37;2.87;;;14.30;99.90;;;;;;5072426;28;20066;-88
2021/11/10 10:31:26;;;;;;;;;;;14.40;99.90;;;;;;5076038;28;20045;-88
2021/11/10 10:34:03;;;;;;;2.17;1.67;;;14.40;99.90;;;;;;5072737;28;20001;-89
2021/11/10 10:36:34;;;;;;;4.82;2.38;;;14.30;99.90;;;;;;5092781;28;20044;-88
2021/11/10 10:39:10;;;;;;;3.47;2.58;;;14.20;99.90;;;;;;5090594;28;20040;-87
2021/11/10 10:41:47;;;;;;;8.77;3.70;;;14.20;99.90;;;;;;5088573;28;20048;-88
2021/11/10 10:44:17;;;;;;;9.23;3.88;;;14.20;99.90;;;;;;5077167;28;20074;-88
2021/11/10 10:46:48;;;;;;;4.83;2.80;;;14.10;99.90;;;;;;5076344;28;20641;-86
2021/11/10 10:49:17;;;;;;;;;;;14.10;99.90;;;;;;5083779;28;20048;-90
2021/11/10 10:51:48;;;;;;;11.32;3.78;;;14.00;99.90;;;;;;5090964;28;19931;-88
2021/11/10 10:54:16;;;;;;;7.22;3.00;;;14.10;99.90;;;;;;5069363;28;20048;-89
2021/11/10 10:56:54;;;;;;;4.15;2.15;;;14.10;99.90;;;;;;4711988;28;10000149;-88
2021/11/10 10:59:24;;;;;;;5.40;2.83;;;14.00;99.90;;;;;;5080963;28;20051;-89
2021/11/10 11:02:07;;;;;;;8.00;2.20;;;14.00;99.90;;;;;;5061261;28;20040;-86
2021/11/10 11:04:42;;;;;;;3.85;2.33;;;14.00;99.90;;;;;;5084225;28;20059;-88
2021/11/10 11:07:12;;;;;;;5.07;2.50;;;13.90;99.90;;;;;;5079047;28;20051;-87
2021/11/10 11:09:48;;;;;;;1.73;1.40;;;14.00;99.90;;;;;;5096161;28;20442;-89
2021/11/10 11:12:29;;;;;;;4.38;2.53;;;14.00;99.90;;;;;;5063908;28;20052;-88
2021/11/10 11:15:07;;;;;;;8.55;2.45;;;14.10;99.90;;;;;;5059672;28;20087;-87
2021/11/10 11:17:37;;;;;;;2.42;1.80;;;14.20;99.90;;;;;;5074216;28;20458;-87
2021/11/10 11:20:08;;;;;;;3.25;2.17;;;14.20;99.90;;;;;;5079955;28;20059;-89
2021/11/10 11:22:46;;;;;;;3.95;2.17;;;14.20;99.90;;;;;;5070932;28;20067;-89
2021/11/10 11:25:16;;;;;;;3.85;2.08;;;14.30;99.90;;;;;;5091378;28;20047;-87
2021/11/10 11:27:58;;;;;;;5.40;3.08;;;14.30;99.90;;;;;;5090385;28;20044;-90
2021/11/10 11:30:32;;;;;;;9.15;2.33;;;14.30;99.90;;;;;;5070025;28;20058;-85
2021/11/10 11:33:03;;;;;;;3.70;1.98;;;14.40;99.90;;;;;;5088718;28;20059;-86
2021/11/10 11:35:38;;;;;;;4.43;1.10;;;14.50;99.90;;;;;;5056211;28;20048;-88
2021/11/10 11:38:12;;;;;;;2.35;1.25;;;14.50;99.90;;;;;;5075578;28;20036;-87
2021/11/10 11:40:44;;;;;;;3.10;1.45;;;14.40;99.90;;;;;;5057914;28;20047;-87
2021/11/10 11:43:16;;;;;;;2.17;0.98;;;14.40;99.90;;;;;;5073554;28;20044;-87
2021/11/10 11:45:47;;;;;;;3.33;1.23;;;14.40;99.90;;;;;;5073560;28;20059;-87
2021/11/10 11:48:19;;;;;;;6.47;1.45;;;14.30;99.90;;;;;;5072225;28;20040;-89
2021/11/10 11:50:50;;;;;;;2.72;1.95;;;14.30;99.90;;;;;;5056188;28;20054;-89
2021/11/10 11:53:19;;;;;;;1.70;1.20;;;14.30;99.90;;;;;;5088693;28;20044;-88
2021/11/10 11:55:54;;;;;;;4.07;1.20;;;14.40;99.90;;;;;;5091689;28;20058;-85
2021/11/10 11:58:27;;;;;;;5.47;1.60;;;14.40;99.90;;;;;;5073950;28;20055;-88
2021/11/10 12:01:04;;;;;;;5.10;2.00;;;14.50;99.90;;;;;;5088795;28;20500;-86
2021/11/10 12:03:41;;;;;;;4.20;1.58;;;14.50;99.90;;;;;;5073991;28;20044;-89
2021/11/10 12:06:13;;;;;;;3.95;1.90;;;14.40;99.90;;;;;;5071290;28;20273;-90
2021/11/10 12:08:48;;;;;;;6.65;3.22;;;14.40;99.90;;;;;;5044595;28;20048;-91
2021/11/10 12:11:19;;;;;;;6.00;3.10;;;14.40;99.90;;;;;;5075504;28;20055;-88
2021/11/10 12:14:26;;;;;;;9.25;3.53;;;14.40;99.90;;;;;;5075141;28;20059;-89
2021/11/10 12:17:13;;;;;;;15.20;4.82;;;14.40;99.90;;;;;;4998756;28;20336;-90
2021/11/10 12:20:01;;;;;;;5.38;2.95;;;14.40;99.90;;;;;;5057163;28;20067;-88
2021/11/10 12:22:53;;;;;;;6.05;2.80;;;14.30;99.90;;;;;;5092345;28;20044;-88
2021/11/10 12:25:23;;;;;;;3.28;2.28;;;14.20;99.90;;;;;;5057844;28;20048;-89
2021/11/10 12:27:53;;;;;;;8.38;3.58;;;14.40;99.90;;;;;;5073027;28;20055;-86
2021/11/10 12:30:30;;;;;;;4.75;2.03;;;14.80;99.90;;;;;;5095661;28;20032;-85
2021/11/10 12:33:34;;;;;;;3.65;2.13;;;14.50;99.90;;;;;;5077775;28;20601;-84
2021/11/10 12:36:05;;;;;;;7.65;2.30;;;16.10;99.90;;;;;;5077660;28;20052;-87
2021/11/10 12:38:35;;;;;;;9.65;4.45;;;14.40;99.90;;;;;;5059798;28;20043;-86
2021/11/10 12:41:09;;;;;;;5.03;2.20;;;14.50;99.90;;;;;;5094011;28;20052;-86
2021/11/10 12:43:40;;;;;;;3.55;1.80;;;14.50;99.90;;;;;;5096229;28;20044;-87
2021/11/10 12:46:21;;;;;;;5.95;1.90;;;14.10;99.90;;;;;;5062869;28;20500;-86
2021/11/10 12:48:50;;;;;;;4.15;1.73;;;14.50;99.90;;;;;;5078250;28;20039;-86
2021/11/10 12:51:25;;;;;;;;;;;14.60;99.90;;;;;;5052326;28;20048;-85
2021/11/10 12:53:56;;;;;;;2.53;1.67;;;14.50;99.90;;;;;;5056998;28;20166;-86
2021/11/10 12:56:44;;;;;;;6.47;1.58;;;14.40;99.90;;;;;;5086138;28;20036;-85
2021/11/10 12:59:19;;;;;;;5.18;2.10;;;14.60;99.90;;;;;;5070579;28;20048;-86
2021/11/10 13:01:48;;;;;;;6.32;1.88;;;14.60;99.90;;;;;;5080836;28;20048;-85